createdAt,value
2022-10-18T00:01:04.514Z,12.23
2022-10-18T00:03:33.201Z,17.02
2022-10-18T00:06:01.075Z,12.50
2022-10-18T00:08:29.997Z,11.35
2022-10-18T00:10:57.812Z,11.75
2022-10-18T00:13:26.856Z,10.32
2022-10-18T00:15:59.388Z,13.27
2022-10-18T00:18:28.212Z,12.98
2022-10-18T00:21:01.643Z,11.90
2022-10-18T00:23:31.244Z,12.05
2022-10-18T00:26:18.774Z,11.82
2022-10-18T00:28:50.234Z,9.57
2022-10-18T00:33:52.101Z,12.45
2022-10-18T00:36:20.982Z,10.38
2022-10-18T00:38:49.346Z,13.40
2022-10-18T00:41:24.244Z,12.40
2022-10-18T00:44:04.242Z,9.80
2022-10-18T00:46:41.025Z,10.60
2022-10-18T00:49:25.106Z,10.93
2022-10-18T00:51:59.795Z,9.07
2022-10-18T00:54:31.117Z,9.55
2022-10-18T00:56:59.291Z,12.10
2022-10-18T00:59:27.380Z,9.88
2022-10-18T01:01:54.856Z,13.02
2022-10-18T01:04:22.464Z,9.13
2022-10-18T01:07:41.623Z,11.98
2022-10-18T01:11:03.557Z,10.10
2022-10-18T01:14:17.727Z,10.38
2022-10-18T01:16:59.118Z,11.38
2022-10-18T01:19:47.693Z,10.48
2022-10-18T01:22:31.446Z,10.30
2022-10-18T01:25:27.126Z,10.35
2022-10-18T01:28:15.788Z,11.38
2022-10-18T01:30:55.909Z,9.48
2022-10-18T01:33:49.239Z,12.80
2022-10-18T01:36:30.597Z,13.18
2022-10-18T01:39:05.715Z,12.85
2022-10-18T01:41:37.567Z,10.05
2022-10-18T01:44:11.386Z,12.68
2022-10-18T01:46:41.257Z,10.45
2022-10-18T01:49:08.792Z,10.68
2022-10-18T01:51:36.257Z,10.23
2022-10-18T01:54:03.730Z,8.85
2022-10-18T01:57:12.256Z,10.00
2022-10-18T01:59:54.744Z,9.85
2022-10-18T02:02:39.028Z,10.57
2022-10-18T02:05:33.074Z,13.82
2022-10-18T02:08:27.951Z,11.25
2022-10-18T02:11:05.453Z,10.10
2022-10-18T02:13:59.623Z,10.43
2022-10-18T02:16:40.601Z,14.50
2022-10-18T02:19:40.402Z,9.93
2022-10-18T02:22:11.387Z,14.52
2022-10-18T02:24:48.232Z,9.48
2022-10-18T02:27:15.845Z,10.70
2022-10-18T02:29:45.267Z,9.43
2022-10-18T02:32:27.415Z,8.65
2022-10-18T02:35:06.981Z,11.20
2022-10-18T02:37:39.779Z,13.27
2022-10-18T02:40:10.131Z,11.70
2022-10-18T02:42:44.309Z,10.85
2022-10-18T02:45:13.153Z,12.38
2022-10-18T02:47:40.616Z,11.43
2022-10-18T02:50:09.131Z,10.65
2022-10-18T02:52:36.802Z,10.80
2022-10-18T02:55:04.989Z,12.02
2022-10-18T02:57:32.852Z,13.50
2022-10-18T03:00:00.557Z,12.43
2022-10-18T03:02:27.933Z,15.32
2022-10-18T03:04:55.302Z,12.73
2022-10-18T03:07:22.731Z,15.30
2022-10-18T03:09:50.075Z,10.65
2022-10-18T03:12:17.547Z,12.70
2022-10-18T03:14:44.941Z,13.30
2022-10-18T03:17:12.363Z,13.15
2022-10-18T03:19:39.796Z,13.13
2022-10-18T03:22:07.236Z,14.60
2022-10-18T03:24:34.627Z,15.10
2022-10-18T03:27:02.386Z,12.52
2022-10-18T03:29:29.782Z,11.85
2022-10-18T03:31:57.191Z,13.25
2022-10-18T03:34:24.573Z,12.95
2022-10-18T03:36:51.929Z,11.23
2022-10-18T03:39:19.349Z,13.80
2022-10-18T03:41:46.723Z,13.85
2022-10-18T03:44:14.068Z,13.23
2022-10-18T03:46:41.628Z,15.15
2022-10-18T03:49:08.985Z,14.23
2022-10-18T03:51:36.373Z,12.95
2022-10-18T03:54:04.000Z,15.05
2022-10-18T03:56:31.374Z,16.13
2022-10-18T03:58:58.759Z,15.13
2022-10-18T04:01:26.394Z,13.98
2022-10-18T04:03:53.822Z,17.20
2022-10-18T04:06:21.199Z,13.35
2022-10-18T04:08:48.536Z,15.05
2022-10-18T04:11:15.896Z,14.32
2022-10-18T04:13:43.307Z,14.90
2022-10-18T04:16:10.649Z,17.23
2022-10-18T04:18:38.254Z,19.13
2022-10-18T04:21:05.817Z,17.00
2022-10-18T04:23:36.340Z,15.30
2022-10-18T04:26:07.561Z,16.80
2022-10-18T04:28:39.838Z,14.50
2022-10-18T04:31:07.447Z,15.70
2022-10-18T04:33:35.331Z,21.50
2022-10-18T04:36:02.889Z,24.45
2022-10-18T04:38:30.417Z,39.20
2022-10-18T04:40:57.845Z,22.38
2022-10-18T04:43:25.231Z,25.65
2022-10-18T04:45:52.609Z,26.25
2022-10-18T04:48:20.497Z,25.70
2022-10-18T04:50:50.078Z,27.27
2022-10-18T04:53:19.163Z,59.65
2022-10-18T04:55:49.432Z,26.88
2022-10-18T04:58:18.593Z,27.58
2022-10-18T05:00:47.657Z,27.88
2022-10-18T05:03:15.824Z,23.92
2022-10-18T05:06:00.700Z,184.05
2022-10-18T05:08:30.680Z,39.08
2022-10-18T05:10:58.513Z,35.35
2022-10-18T05:13:26.488Z,39.67
2022-10-18T05:15:53.913Z,29.23
2022-10-18T05:18:21.616Z,23.70
2022-10-18T05:20:48.999Z,21.20
2022-10-18T05:23:16.368Z,81.45
2022-10-18T05:25:44.151Z,28.83
2022-10-18T05:28:38.799Z,28.25
2022-10-18T05:31:07.217Z,66.95
2022-10-18T05:33:34.947Z,51.75
2022-10-18T05:36:02.331Z,55.83
2022-10-18T05:38:32.687Z,73.43
2022-10-18T05:41:04.304Z,60.05
2022-10-18T05:45:58.970Z,104.22
2022-10-18T05:48:26.644Z,56.10
2022-10-18T05:50:54.088Z,80.50
2022-10-18T05:53:37.743Z,113.93
2022-10-18T05:56:07.186Z,55.05
2022-10-18T05:58:35.378Z,69.22
2022-10-18T06:01:05.464Z,61.08
2022-10-18T06:03:34.223Z,53.63
2022-10-18T06:06:08.334Z,53.85
2022-10-18T06:08:37.511Z,48.10
2022-10-18T06:11:14.031Z,71.93
2022-10-18T06:13:47.866Z,49.83
2022-10-18T06:16:18.403Z,80.30
2022-10-18T06:18:55.065Z,58.88
2022-10-18T06:21:25.033Z,29.55
2022-10-18T06:23:57.267Z,71.60
2022-10-18T06:26:26.585Z,24.02
2022-10-18T06:28:54.200Z,41.30
2022-10-18T06:31:21.728Z,36.92
2022-10-18T06:33:49.263Z,83.10
2022-10-18T06:36:24.176Z,49.10
2022-10-18T06:38:51.879Z,95.20
2022-10-18T06:41:19.649Z,52.50
2022-10-18T06:43:53.351Z,81.38
2022-10-18T06:46:24.474Z,39.75
2022-10-18T06:48:52.089Z,61.65
2022-10-18T06:51:20.014Z,54.28
2022-10-18T06:54:05.856Z,74.03
2022-10-18T06:56:35.758Z,116.72
2022-10-18T06:59:04.225Z,71.38
2022-10-18T07:01:32.600Z,88.70
2022-10-18T07:04:00.056Z,69.38
2022-10-18T07:06:27.683Z,128.43
2022-10-18T07:08:55.168Z,90.93
2022-10-18T07:11:26.135Z,95.30
2022-10-18T07:14:00.762Z,87.68
2022-10-18T07:16:28.446Z,130.10
2022-10-18T07:18:55.773Z,148.02
2022-10-18T07:21:25.864Z,131.05
2022-10-18T07:23:54.439Z,86.10
2022-10-18T07:26:32.148Z,125.60
2022-10-18T07:29:09.694Z,100.60
2022-10-18T07:31:40.944Z,105.13
2022-10-18T07:34:12.933Z,98.95
2022-10-18T07:36:40.905Z,57.28
2022-10-18T07:39:09.240Z,58.97
2022-10-18T07:41:37.053Z,45.92
2022-10-18T07:44:04.630Z,47.40
2022-10-18T07:46:32.380Z,58.08
2022-10-18T07:48:59.731Z,48.42
2022-10-18T07:51:28.156Z,61.55
2022-10-18T07:53:55.491Z,48.55
2022-10-18T07:56:23.256Z,54.70
2022-10-18T07:58:54.140Z,49.60
2022-10-18T08:01:24.072Z,38.67
2022-10-18T08:03:52.729Z,43.10
2022-10-18T08:06:22.734Z,37.72
2022-10-18T08:08:50.534Z,32.97
2022-10-18T08:11:22.221Z,40.15
2022-10-18T08:16:26.507Z,39.35
2022-10-18T08:18:57.066Z,41.63
2022-10-18T08:21:24.523Z,45.00
2022-10-18T08:23:53.708Z,44.03
2022-10-18T08:26:23.544Z,45.33
2022-10-18T08:29:10.251Z,47.53
2022-10-18T08:31:37.979Z,46.22
2022-10-18T08:34:05.320Z,42.58
2022-10-18T08:36:33.006Z,43.90
2022-10-18T08:39:00.357Z,40.40
2022-10-18T08:41:36.952Z,41.70
2022-10-18T08:44:24.853Z,42.95
2022-10-18T08:47:02.473Z,39.13
2022-10-18T08:49:46.322Z,42.10
2022-10-18T08:52:35.450Z,40.08
2022-10-18T08:55:15.880Z,41.67
2022-10-18T08:57:43.584Z,37.30
2022-10-18T09:00:20.280Z,38.88
2022-10-18T09:03:07.142Z,36.58
2022-10-18T09:05:52.417Z,36.67
2022-10-18T09:08:46.579Z,37.35
2022-10-18T09:11:42.914Z,33.85
2022-10-18T09:15:03.665Z,34.78
2022-10-18T09:18:30.937Z,32.75
2022-10-18T09:21:22.765Z,31.23
2022-10-18T09:26:49.885Z,31.48
2022-10-18T09:29:51.954Z,32.00
2022-10-18T09:35:18.188Z,29.77
2022-10-18T09:37:47.348Z,28.10
2022-10-18T09:40:29.924Z,30.77
2022-10-18T09:43:08.044Z,28.20
2022-10-18T09:45:41.427Z,30.70
2022-10-18T09:48:28.244Z,30.27
2022-10-18T09:51:12.081Z,28.85
2022-10-18T09:54:15.746Z,27.55
2022-10-18T09:57:09.786Z,25.02
2022-10-18T09:59:43.152Z,31.40
2022-10-18T10:02:22.141Z,25.50
2022-10-18T10:04:51.872Z,24.10
2022-10-18T10:07:28.640Z,25.23
2022-10-18T10:10:07.438Z,28.30
2022-10-18T10:12:38.806Z,21.63
2022-10-18T10:15:28.190Z,25.67
2022-10-18T10:18:17.589Z,26.58
2022-10-18T10:20:53.920Z,24.95
2022-10-18T10:23:44.424Z,16.65
2022-10-18T10:26:28.989Z,22.85
2022-10-18T10:28:56.675Z,17.83
2022-10-18T10:31:29.344Z,20.25
2022-10-18T10:34:03.537Z,16.48
2022-10-18T10:36:33.510Z,14.95
2022-10-18T10:39:18.862Z,16.58
2022-10-18T10:41:56.611Z,17.10
2022-10-18T10:44:29.125Z,15.75
2022-10-18T10:46:57.824Z,15.82
2022-10-18T10:49:47.680Z,13.73
2022-10-18T10:52:29.033Z,12.55
2022-10-18T10:55:17.037Z,10.90
2022-10-18T10:57:52.200Z,10.85
2022-10-18T11:00:43.958Z,11.23
2022-10-18T11:03:28.947Z,10.13
2022-10-18T11:06:00.627Z,9.75
2022-10-18T11:08:40.938Z,13.50
2022-10-18T11:11:33.579Z,11.95
2022-10-18T11:14:26.582Z,11.27
2022-10-18T11:17:22.862Z,10.77
2022-10-18T11:20:11.768Z,13.57
2022-10-18T11:23:01.109Z,11.20
2022-10-18T11:25:48.649Z,8.90
2022-10-18T11:28:34.707Z,7.15
2022-10-18T11:31:17.653Z,11.23
2022-10-18T11:34:28.269Z,9.45
2022-10-18T11:37:42.155Z,10.05
2022-10-18T11:40:40.339Z,9.48
2022-10-18T11:44:02.153Z,10.65
2022-10-18T11:47:28.010Z,10.77
2022-10-18T11:50:26.164Z,12.57
2022-10-18T11:53:27.251Z,9.63
2022-10-18T11:56:36.875Z,10.83
2022-10-18T11:59:32.536Z,8.50
2022-10-18T12:02:45.801Z,8.35
2022-10-18T12:05:30.265Z,11.95
2022-10-18T12:08:35.791Z,9.93
2022-10-18T12:11:15.696Z,14.30
2022-10-18T12:13:57.679Z,10.23
2022-10-18T12:16:50.454Z,11.68
2022-10-18T12:19:33.005Z,11.75
2022-10-18T12:22:35.330Z,9.07
2022-10-18T12:25:04.111Z,11.60
2022-10-18T12:27:46.257Z,12.95
2022-10-18T12:30:57.332Z,10.05
2022-10-18T12:33:36.012Z,14.77
2022-10-18T12:36:21.419Z,11.43
2022-10-18T12:39:03.205Z,11.75
2022-10-18T12:41:36.284Z,12.07
2022-10-18T12:44:18.401Z,9.55
2022-10-18T12:46:49.520Z,9.63
2022-10-18T12:49:42.620Z,8.73
2022-10-18T12:52:28.716Z,7.05
2022-10-18T12:55:26.435Z,6.53
2022-10-18T12:57:53.710Z,10.43
2022-10-18T13:00:30.127Z,9.35
2022-10-18T13:03:12.531Z,10.80
2022-10-18T13:05:54.491Z,10.38
2022-10-18T13:08:31.674Z,11.38
2022-10-18T13:11:01.891Z,11.27
2022-10-18T13:13:40.663Z,10.88
2022-10-18T13:16:31.005Z,9.15
2022-10-18T13:20:25.024Z,9.82
2022-10-18T13:23:25.130Z,8.63
2022-10-18T13:25:58.252Z,8.63
2022-10-18T13:28:48.843Z,7.25
2022-10-18T13:31:28.655Z,10.25
2022-10-18T13:34:17.654Z,8.75
2022-10-18T13:36:56.909Z,9.05
2022-10-18T13:39:25.316Z,8.00
2022-10-18T13:41:58.528Z,10.55
2022-10-18T13:44:40.451Z,8.70
2022-10-18T13:47:07.870Z,10.75
2022-10-18T13:49:59.735Z,9.00
2022-10-18T13:53:00.049Z,10.18
2022-10-18T13:55:50.825Z,9.60
2022-10-18T13:59:14.461Z,13.82
2022-10-18T14:02:42.844Z,5.93
2022-10-18T14:05:25.082Z,11.20
2022-10-18T14:08:08.086Z,10.00
2022-10-18T14:11:03.528Z,7.55
2022-10-18T14:13:45.093Z,11.45
2022-10-18T14:16:34.482Z,8.85
2022-10-18T14:19:30.184Z,8.90
2022-10-18T14:22:11.665Z,6.03
2022-10-18T14:24:46.525Z,7.18
2022-10-18T14:27:26.964Z,8.13
2022-10-18T14:30:08.557Z,10.30
2022-10-18T14:37:54.644Z,10.55
2022-10-18T14:40:34.131Z,8.03
2022-10-18T14:43:14.697Z,10.10
2022-10-18T14:45:42.882Z,7.78
2022-10-18T14:48:17.533Z,9.63
2022-10-18T14:50:49.244Z,9.95
2022-10-18T14:53:25.071Z,11.80
2022-10-18T14:55:56.092Z,7.88
2022-10-18T14:58:23.756Z,9.80
2022-10-18T15:00:51.155Z,8.80
2022-10-18T15:03:19.130Z,13.63
2022-10-18T15:06:00.589Z,9.48
2022-10-18T15:08:42.586Z,7.80
2022-10-18T15:11:14.754Z,10.70
2022-10-18T15:14:14.526Z,6.85
2022-10-18T15:16:42.997Z,10.18
2022-10-18T15:19:16.230Z,6.78
2022-10-18T15:22:27.196Z,8.52
2022-10-18T15:25:20.776Z,7.90
2022-10-18T15:27:53.389Z,7.22
2022-10-18T15:30:40.914Z,7.03
2022-10-18T15:33:21.964Z,8.18
2022-10-18T15:35:51.333Z,8.13
2022-10-18T15:38:32.668Z,7.72
2022-10-18T15:41:00.000Z,7.80
2022-10-18T15:43:27.322Z,9.55
2022-10-18T15:46:05.053Z,8.32
2022-10-18T15:48:45.253Z,8.27
2022-10-18T15:51:48.302Z,6.53
2022-10-18T15:54:19.945Z,9.48
2022-10-18T15:56:47.372Z,6.38
2022-10-18T15:59:25.975Z,9.15
2022-10-18T16:01:54.233Z,5.85
2022-10-18T16:04:31.424Z,7.00
2022-10-18T16:07:00.360Z,9.95
2022-10-18T16:09:29.154Z,9.13
2022-10-18T16:11:58.062Z,8.75
2022-10-18T16:14:26.399Z,8.02
2022-10-18T16:17:00.939Z,10.02
2022-10-18T16:19:29.125Z,7.55
2022-10-18T16:21:56.590Z,6.75
2022-10-18T16:24:24.414Z,6.55
2022-10-18T16:26:53.068Z,8.73
2022-10-18T16:29:28.704Z,5.35
2022-10-18T16:31:58.198Z,6.75
2022-10-18T16:34:27.401Z,7.47
2022-10-18T16:36:55.366Z,6.22
2022-10-18T16:39:23.820Z,8.30
2022-10-18T16:41:51.869Z,5.43
2022-10-18T16:44:19.503Z,8.32
2022-10-18T16:46:51.106Z,7.43
2022-10-18T16:49:25.017Z,8.23
2022-10-18T16:51:54.293Z,11.15
2022-10-18T16:54:23.421Z,9.60
2022-10-18T16:56:51.326Z,8.30
2022-10-18T16:59:26.421Z,9.63
2022-10-18T17:01:53.903Z,7.63
2022-10-18T17:04:21.338Z,9.50
2022-10-18T17:06:49.154Z,6.55
2022-10-18T17:09:16.821Z,6.63
2022-10-18T17:11:45.160Z,7.57
2022-10-18T17:14:12.483Z,9.65
2022-10-18T17:16:39.896Z,6.82
2022-10-18T17:19:11.676Z,9.85
2022-10-18T17:21:39.063Z,9.18
2022-10-18T17:24:06.548Z,9.20
2022-10-18T17:26:36.225Z,7.13
2022-10-18T17:29:08.021Z,10.93
2022-10-18T17:31:35.767Z,6.25
2022-10-18T17:34:04.358Z,8.80
2022-10-18T17:36:33.742Z,6.63
2022-10-18T17:39:01.206Z,10.63
2022-10-18T17:41:28.620Z,9.65
2022-10-18T17:43:56.389Z,11.40
2022-10-18T17:46:23.900Z,7.82
2022-10-18T17:48:51.282Z,9.02
2022-10-18T17:51:18.833Z,7.93
2022-10-18T17:53:46.544Z,7.70
2022-10-18T17:56:15.536Z,8.32
2022-10-18T17:58:43.554Z,6.45
2022-10-18T18:01:13.472Z,7.82
2022-10-18T18:03:41.527Z,8.32
2022-10-18T18:06:45.797Z,13.52
2022-10-18T18:09:16.709Z,9.07
2022-10-18T18:11:47.267Z,10.25
2022-10-18T18:14:16.024Z,9.80
2022-10-18T18:16:46.970Z,8.23
2022-10-18T18:19:17.561Z,9.87
2022-10-18T18:21:45.382Z,9.82
2022-10-18T18:24:13.999Z,11.55
2022-10-18T18:26:41.980Z,8.80
2022-10-18T18:29:12.664Z,11.60
2022-10-18T18:31:43.770Z,8.40
2022-10-18T18:34:11.748Z,10.73
2022-10-18T18:36:39.784Z,9.82
2022-10-18T18:39:09.042Z,9.45
2022-10-18T18:41:37.713Z,11.10
2022-10-18T18:44:06.220Z,15.07
2022-10-18T18:46:38.884Z,10.98
2022-10-18T18:49:07.957Z,12.05
2022-10-18T18:51:40.173Z,12.35
2022-10-18T18:54:10.509Z,9.73
2022-10-18T18:56:38.517Z,9.65
2022-10-18T18:59:07.313Z,10.15
2022-10-18T19:01:37.316Z,9.10
2022-10-18T19:04:07.262Z,9.40
2022-10-18T19:06:38.358Z,9.32
2022-10-18T19:09:18.524Z,10.52
2022-10-18T19:11:48.904Z,8.95
2022-10-18T19:14:16.881Z,7.30
2022-10-18T19:16:53.540Z,7.95
2022-10-18T19:19:24.036Z,9.65
2022-10-18T19:21:55.876Z,8.35
2022-10-18T19:24:25.460Z,10.20
2022-10-18T19:27:08.373Z,8.05
2022-10-18T19:29:39.243Z,10.73
2022-10-18T19:32:12.151Z,9.93
2022-10-18T19:34:40.409Z,11.90
2022-10-18T19:37:09.416Z,11.18
2022-10-18T19:39:37.739Z,12.60
2022-10-18T19:42:17.460Z,11.95
2022-10-18T19:44:48.490Z,10.35
2022-10-18T19:47:15.973Z,8.48
2022-10-18T19:49:43.338Z,9.38
2022-10-18T19:52:12.500Z,10.82
2022-10-18T19:54:39.982Z,11.15
2022-10-18T19:57:07.528Z,9.32
2022-10-18T19:59:35.978Z,9.02
2022-10-18T20:02:04.693Z,12.27
2022-10-18T20:04:34.724Z,9.63
2022-10-18T20:07:03.011Z,11.15
2022-10-18T20:09:30.482Z,14.32
2022-10-18T20:11:57.848Z,11.88
2022-10-18T20:14:25.670Z,11.68
2022-10-18T20:16:53.033Z,11.57
2022-10-18T20:19:20.424Z,13.50
2022-10-18T20:21:47.769Z,12.27
2022-10-18T20:24:22.146Z,11.45
2022-10-18T20:27:42.857Z,12.15
2022-10-18T20:30:56.399Z,12.38
2022-10-18T20:33:56.512Z,12.32
2022-10-18T20:36:25.914Z,11.35
2022-10-18T20:38:53.328Z,10.27
2022-10-18T20:41:48.376Z,10.55
2022-10-18T20:44:19.209Z,9.38
2022-10-18T20:46:46.980Z,10.53
2022-10-18T20:49:16.647Z,9.63
2022-10-18T20:51:44.282Z,10.10
2022-10-18T20:54:12.360Z,9.82
2022-10-18T20:56:39.960Z,12.52
2022-10-18T20:59:09.623Z,12.93
2022-10-18T21:01:39.406Z,10.60
2022-10-18T21:04:10.081Z,12.65
2022-10-18T21:06:41.847Z,10.10
2022-10-18T21:11:43.159Z,9.30
2022-10-18T21:14:21.706Z,11.18
2022-10-18T21:16:51.440Z,10.98
2022-10-18T21:19:25.795Z,8.73
2022-10-18T21:21:57.504Z,12.32
2022-10-18T21:26:54.609Z,10.45
2022-10-18T21:29:24.520Z,9.10
2022-10-18T21:31:59.414Z,11.07
2022-10-18T21:34:26.934Z,9.57
2022-10-18T21:36:54.290Z,11.85
2022-10-18T21:41:55.971Z,11.75
2022-10-18T21:44:23.590Z,10.55
2022-10-18T21:46:51.557Z,12.75
2022-10-18T21:49:19.061Z,11.20
2022-10-18T21:51:46.448Z,12.55
2022-10-18T21:54:16.111Z,9.50
2022-10-18T21:56:44.065Z,10.00
2022-10-18T21:59:14.555Z,9.50
2022-10-18T22:01:43.576Z,11.43
2022-10-18T22:04:24.241Z,10.77
2022-10-18T22:06:52.252Z,10.80
2022-10-18T22:09:21.360Z,10.93
2022-10-18T22:11:53.135Z,9.07
2022-10-18T22:16:48.855Z,11.32
2022-10-18T22:19:16.722Z,8.25
2022-10-18T22:21:44.097Z,11.13
2022-10-18T22:24:11.696Z,7.93
2022-10-18T22:26:42.392Z,8.10
2022-10-18T22:29:17.341Z,8.40
2022-10-18T22:31:52.049Z,10.13
2022-10-18T22:34:29.231Z,9.88
2022-10-18T22:36:57.164Z,11.43
2022-10-18T22:39:24.712Z,9.48
2022-10-18T22:41:55.507Z,10.88
2022-10-18T22:44:23.592Z,14.97
2022-10-18T22:46:50.923Z,9.63
2022-10-18T22:49:18.301Z,8.88
2022-10-18T22:51:45.682Z,8.38
2022-10-18T22:54:13.101Z,10.02
2022-10-18T22:56:40.447Z,14.50
2022-10-18T22:59:07.827Z,12.68
2022-10-18T23:01:35.742Z,10.38
2022-10-18T23:04:03.678Z,9.25
2022-10-18T23:06:35.526Z,9.00
2022-10-18T23:11:35.073Z,10.93
2022-10-18T23:14:05.304Z,7.70
2022-10-18T23:16:33.270Z,11.77
2022-10-18T23:19:00.765Z,9.45
2022-10-18T23:21:29.013Z,9.63
2022-10-18T23:23:57.406Z,11.00
2022-10-18T23:26:27.942Z,10.18
2022-10-18T23:28:56.515Z,10.15
2022-10-18T23:31:31.300Z,9.60
2022-10-18T23:34:04.814Z,9.18
2022-10-18T23:36:33.632Z,7.72
2022-10-18T23:39:03.105Z,6.88
2022-10-18T23:41:30.660Z,7.88
2022-10-18T23:43:58.104Z,9.80
2022-10-18T23:46:25.489Z,11.07
2022-10-18T23:48:52.876Z,9.13
2022-10-18T23:51:20.225Z,7.05
2022-10-18T23:53:48.332Z,8.63
2022-10-18T23:56:16.635Z,8.68
2022-10-18T23:58:45.334Z,8.20
